sensor_id;sensor_type;location;lat;lon;timestamp;P1;durP1;ratioP1;P2;durP2;ratioP2
7833;SDS011;3962;42.696;23.354;2022-12-07T00:00:02;43.67;;;23.70;;
7833;SDS011;3962;42.696;23.354;2022-12-07T00:02:30;48.70;;;23.00;;
7833;SDS011;3962;42.696;23.354;2022-12-07T00:04:57;52.80;;;23.30;;
7833;SDS011;3962;42.696;23.354;2022-12-07T00:07:24;48.07;;;22.60;;
7833;SDS011;3962;42.696;23.354;2022-12-07T00:09:51;43.70;;;21.73;;
7833;SDS011;3962;42.696;23.354;2022-12-07T00:12:17;47.97;;;21.93;;
7833;SDS011;3962;42.696;23.354;2022-12-07T00:14:46;49.07;;;23.00;;
7833;SDS011;3962;42.696;23.354;2022-12-07T00:17:13;44.33;;;22.30;;
7833;SDS011;3962;42.696;23.354;2022-12-07T00:19:39;42.47;;;20.93;;
7833;SDS011;3962;42.696;23.354;2022-12-07T00:22:06;43.57;;;22.83;;
7833;SDS011;3962;42.696;23.354;2022-12-07T00:24:33;44.73;;;22.07;;
7833;SDS011;3962;42.696;23.354;2022-12-07T00:27:00;48.03;;;22.13;;
7833;SDS011;3962;42.696;23.354;2022-12-07T00:29:26;37.77;;;18.13;;
7833;SDS011;3962;42.696;23.354;2022-12-07T00:31:54;42.43;;;19.93;;
7833;SDS011;3962;42.696;23.354;2022-12-07T00:34:21;36.93;;;16.70;;
7833;SDS011;3962;42.696;23.354;2022-12-07T00:36:48;37.10;;;19.30;;
7833;SDS011;3962;42.696;23.354;2022-12-07T00:39:16;38.80;;;18.17;;
7833;SDS011;3962;42.696;23.354;2022-12-07T00:41:43;42.23;;;19.83;;
7833;SDS011;3962;42.696;23.354;2022-12-07T00:44:10;39.57;;;19.27;;
7833;SDS011;3962;42.696;23.354;2022-12-07T00:46:36;41.97;;;20.43;;
7833;SDS011;3962;42.696;23.354;2022-12-07T00:49:05;38.90;;;20.43;;
7833;SDS011;3962;42.696;23.354;2022-12-07T00:51:31;42.10;;;20.50;;
7833;SDS011;3962;42.696;23.354;2022-12-07T00:53:58;45.13;;;21.30;;
7833;SDS011;3962;42.696;23.354;2022-12-07T00:56:26;41.20;;;19.63;;
7833;SDS011;3962;42.696;23.354;2022-12-07T00:58:55;40.50;;;20.43;;
7833;SDS011;3962;42.696;23.354;2022-12-07T01:01:23;42.70;;;20.03;;
7833;SDS011;3962;42.696;23.354;2022-12-07T01:03:50;42.83;;;21.17;;
7833;SDS011;3962;42.696;23.354;2022-12-07T01:06:19;44.43;;;22.43;;
7833;SDS011;3962;42.696;23.354;2022-12-07T01:08:47;49.07;;;22.53;;
7833;SDS011;3962;42.696;23.354;2022-12-07T01:11:16;45.33;;;22.60;;
7833;SDS011;3962;42.696;23.354;2022-12-07T01:13:44;45.37;;;22.73;;
7833;SDS011;3962;42.696;23.354;2022-12-07T01:16:11;42.73;;;22.00;;
7833;SDS011;3962;42.696;23.354;2022-12-07T01:18:40;47.73;;;22.87;;
7833;SDS011;3962;42.696;23.354;2022-12-07T01:21:09;44.27;;;22.50;;
7833;SDS011;3962;42.696;23.354;2022-12-07T01:23:40;40.57;;;20.77;;
7833;SDS011;3962;42.696;23.354;2022-12-07T01:26:07;44.10;;;21.87;;
7833;SDS011;3962;42.696;23.354;2022-12-07T01:28:36;44.30;;;21.53;;
7833;SDS011;3962;42.696;23.354;2022-12-07T01:31:03;41.37;;;21.20;;
7833;SDS011;3962;42.696;23.354;2022-12-07T01:33:32;37.93;;;20.53;;
7833;SDS011;3962;42.696;23.354;2022-12-07T01:36:00;44.00;;;19.73;;
7833;SDS011;3962;42.696;23.354;2022-12-07T01:38:29;38.33;;;19.60;;
7833;SDS011;3962;42.696;23.354;2022-12-07T01:40:57;39.43;;;19.80;;
7833;SDS011;3962;42.696;23.354;2022-12-07T01:43:25;41.50;;;19.67;;
7833;SDS011;3962;42.696;23.354;2022-12-07T01:45:53;40.37;;;20.47;;
7833;SDS011;3962;42.696;23.354;2022-12-07T01:48:22;41.13;;;18.80;;
7833;SDS011;3962;42.696;23.354;2022-12-07T01:50:52;35.30;;;18.53;;
7833;SDS011;3962;42.696;23.354;2022-12-07T01:53:22;36.60;;;18.50;;
7833;SDS011;3962;42.696;23.354;2022-12-07T01:55:52;40.20;;;19.80;;
7833;SDS011;3962;42.696;23.354;2022-12-07T01:58:21;43.57;;;20.23;;
7833;SDS011;3962;42.696;23.354;2022-12-07T02:00:49;48.23;;;21.13;;
7833;SDS011;3962;42.696;23.354;2022-12-07T02:03:17;42.33;;;20.60;;
7833;SDS011;3962;42.696;23.354;2022-12-07T02:05:48;41.87;;;20.77;;
7833;SDS011;3962;42.696;23.354;2022-12-07T02:08:16;43.27;;;22.00;;
7833;SDS011;3962;42.696;23.354;2022-12-07T02:10:43;42.00;;;19.53;;
7833;SDS011;3962;42.696;23.354;2022-12-07T02:13:11;41.57;;;20.30;;
7833;SDS011;3962;42.696;23.354;2022-12-07T02:15:48;41.23;;;19.87;;
7833;SDS011;3962;42.696;23.354;2022-12-07T02:18:29;39.37;;;20.77;;
7833;SDS011;3962;42.696;23.354;2022-12-07T02:21:08;42.50;;;21.60;;
7833;SDS011;3962;42.696;23.354;2022-12-07T02:23:45;41.40;;;20.77;;
7833;SDS011;3962;42.696;23.354;2022-12-07T02:26:46;39.73;;;21.20;;
7833;SDS011;3962;42.696;23.354;2022-12-07T02:29:36;40.27;;;19.57;;
7833;SDS011;3962;42.696;23.354;2022-12-07T02:32:10;41.63;;;20.30;;
7833;SDS011;3962;42.696;23.354;2022-12-07T02:34:44;44.17;;;21.97;;
7833;SDS011;3962;42.696;23.354;2022-12-07T02:37:18;44.47;;;21.07;;
7833;SDS011;3962;42.696;23.354;2022-12-07T02:39:54;40.53;;;20.53;;
7833;SDS011;3962;42.696;23.354;2022-12-07T02:42:29;43.47;;;20.87;;
7833;SDS011;3962;42.696;23.354;2022-12-07T02:45:00;42.67;;;21.37;;
7833;SDS011;3962;42.696;23.354;2022-12-07T02:47:27;42.70;;;22.33;;
7833;SDS011;3962;42.696;23.354;2022-12-07T02:49:56;46.13;;;22.10;;
7833;SDS011;3962;42.696;23.354;2022-12-07T02:52:22;46.80;;;22.70;;
7833;SDS011;3962;42.696;23.354;2022-12-07T02:54:49;44.37;;;24.27;;
7833;SDS011;3962;42.696;23.354;2022-12-07T02:57:21;52.17;;;24.67;;
7833;SDS011;3962;42.696;23.354;2022-12-07T03:00:01;47.37;;;22.97;;
7833;SDS011;3962;42.696;23.354;2022-12-07T03:02:35;49.77;;;25.40;;
7833;SDS011;3962;42.696;23.354;2022-12-07T03:05:15;45.70;;;21.87;;
7833;SDS011;3962;42.696;23.354;2022-12-07T03:08:02;51.80;;;27.88;;
7833;SDS011;3962;42.696;23.354;2022-12-07T03:10:39;39.27;;;19.23;;
7833;SDS011;3962;42.696;23.354;2022-12-07T03:13:15;47.10;;;22.67;;
7833;SDS011;3962;42.696;23.354;2022-12-07T03:15:50;45.10;;;23.30;;
7833;SDS011;3962;42.696;23.354;2022-12-07T03:18:25;46.93;;;21.50;;
7833;SDS011;3962;42.696;23.354;2022-12-07T03:20:57;44.93;;;22.33;;
7833;SDS011;3962;42.696;23.354;2022-12-07T03:23:31;48.03;;;23.23;;
7833;SDS011;3962;42.696;23.354;2022-12-07T03:26:01;49.50;;;22.43;;
7833;SDS011;3962;42.696;23.354;2022-12-07T03:28:32;45.73;;;22.43;;
7833;SDS011;3962;42.696;23.354;2022-12-07T03:31:05;53.63;;;25.03;;
7833;SDS011;3962;42.696;23.354;2022-12-07T03:33:37;46.57;;;23.83;;
7833;SDS011;3962;42.696;23.354;2022-12-07T03:36:11;50.07;;;24.63;;
7833;SDS011;3962;42.696;23.354;2022-12-07T03:38:47;44.83;;;22.17;;
7833;SDS011;3962;42.696;23.354;2022-12-07T03:41:18;44.70;;;24.37;;
7833;SDS011;3962;42.696;23.354;2022-12-07T03:43:50;59.00;;;25.67;;
7833;SDS011;3962;42.696;23.354;2022-12-07T03:46:20;53.00;;;25.73;;
7833;SDS011;3962;42.696;23.354;2022-12-07T03:48:57;45.73;;;24.53;;
7833;SDS011;3962;42.696;23.354;2022-12-07T03:51:32;38.80;;;20.90;;
7833;SDS011;3962;42.696;23.354;2022-12-07T03:54:07;47.50;;;22.47;;
7833;SDS011;3962;42.696;23.354;2022-12-07T03:56:39;38.27;;;21.53;;
7833;SDS011;3962;42.696;23.354;2022-12-07T03:59:08;42.70;;;19.47;;
7833;SDS011;3962;42.696;23.354;2022-12-07T04:01:38;40.87;;;19.90;;
7833;SDS011;3962;42.696;23.354;2022-12-07T04:04:08;39.37;;;20.03;;
7833;SDS011;3962;42.696;23.354;2022-12-07T04:06:34;39.93;;;19.63;;
7833;SDS011;3962;42.696;23.354;2022-12-07T04:09:01;47.23;;;23.23;;
7833;SDS011;3962;42.696;23.354;2022-12-07T04:11:28;40.63;;;20.47;;
7833;SDS011;3962;42.696;23.354;2022-12-07T04:13:55;48.23;;;19.13;;
7833;SDS011;3962;42.696;23.354;2022-12-07T04:16:40;39.27;;;19.83;;
7833;SDS011;3962;42.696;23.354;2022-12-07T04:19:07;44.00;;;20.03;;
7833;SDS011;3962;42.696;23.354;2022-12-07T04:21:34;41.27;;;21.17;;
7833;SDS011;3962;42.696;23.354;2022-12-07T04:24:00;41.60;;;20.23;;
7833;SDS011;3962;42.696;23.354;2022-12-07T04:26:27;34.17;;;17.70;;
7833;SDS011;3962;42.696;23.354;2022-12-07T04:28:54;41.03;;;19.47;;
7833;SDS011;3962;42.696;23.354;2022-12-07T04:31:21;39.30;;;19.23;;
7833;SDS011;3962;42.696;23.354;2022-12-07T04:33:49;44.00;;;21.40;;
7833;SDS011;3962;42.696;23.354;2022-12-07T04:36:16;39.27;;;19.17;;
7833;SDS011;3962;42.696;23.354;2022-12-07T04:38:44;38.73;;;19.07;;
7833;SDS011;3962;42.696;23.354;2022-12-07T04:41:11;39.83;;;19.03;;
7833;SDS011;3962;42.696;23.354;2022-12-07T04:43:38;33.67;;;17.77;;
7833;SDS011;3962;42.696;23.354;2022-12-07T04:46:05;39.37;;;17.53;;
7833;SDS011;3962;42.696;23.354;2022-12-07T04:48:32;33.37;;;17.17;;
7833;SDS011;3962;42.696;23.354;2022-12-07T04:51:01;37.47;;;17.97;;
7833;SDS011;3962;42.696;23.354;2022-12-07T04:53:28;41.97;;;18.20;;
7833;SDS011;3962;42.696;23.354;2022-12-07T04:55:55;39.20;;;19.27;;
7833;SDS011;3962;42.696;23.354;2022-12-07T04:58:22;40.20;;;18.53;;
7833;SDS011;3962;42.696;23.354;2022-12-07T05:00:49;41.27;;;18.20;;
7833;SDS011;3962;42.696;23.354;2022-12-07T05:03:15;42.87;;;19.77;;
7833;SDS011;3962;42.696;23.354;2022-12-07T05:05:42;51.60;;;21.43;;
7833;SDS011;3962;42.696;23.354;2022-12-07T05:08:10;47.60;;;21.70;;
7833;SDS011;3962;42.696;23.354;2022-12-07T05:10:37;53.47;;;21.47;;
7833;SDS011;3962;42.696;23.354;2022-12-07T05:13:04;40.40;;;20.10;;
7833;SDS011;3962;42.696;23.354;2022-12-07T05:15:31;43.33;;;19.50;;
7833;SDS011;3962;42.696;23.354;2022-12-07T05:17:57;42.43;;;22.00;;
7833;SDS011;3962;42.696;23.354;2022-12-07T05:20:24;43.00;;;21.47;;
7833;SDS011;3962;42.696;23.354;2022-12-07T05:22:51;40.63;;;20.80;;
7833;SDS011;3962;42.696;23.354;2022-12-07T05:25:19;44.33;;;22.23;;
7833;SDS011;3962;42.696;23.354;2022-12-07T05:27:46;39.10;;;20.97;;
7833;SDS011;3962;42.696;23.354;2022-12-07T05:30:13;43.37;;;21.67;;
7833;SDS011;3962;42.696;23.354;2022-12-07T05:32:40;40.77;;;22.13;;
7833;SDS011;3962;42.696;23.354;2022-12-07T05:35:07;39.77;;;20.70;;
7833;SDS011;3962;42.696;23.354;2022-12-07T05:37:34;38.10;;;21.20;;
7833;SDS011;3962;42.696;23.354;2022-12-07T05:40:01;38.80;;;19.53;;
7833;SDS011;3962;42.696;23.354;2022-12-07T05:42:30;44.73;;;20.70;;
7833;SDS011;3962;42.696;23.354;2022-12-07T05:44:57;46.37;;;20.60;;
7833;SDS011;3962;42.696;23.354;2022-12-07T05:47:24;47.87;;;21.67;;
7833;SDS011;3962;42.696;23.354;2022-12-07T05:49:51;51.07;;;22.50;;
7833;SDS011;3962;42.696;23.354;2022-12-07T05:52:17;46.53;;;23.63;;
7833;SDS011;3962;42.696;23.354;2022-12-07T05:54:44;47.70;;;25.43;;
7833;SDS011;3962;42.696;23.354;2022-12-07T05:57:11;54.43;;;27.00;;
7833;SDS011;3962;42.696;23.354;2022-12-07T05:59:39;47.73;;;23.93;;
7833;SDS011;3962;42.696;23.354;2022-12-07T06:02:06;58.47;;;24.20;;
7833;SDS011;3962;42.696;23.354;2022-12-07T06:04:35;44.67;;;23.23;;
7833;SDS011;3962;42.696;23.354;2022-12-07T06:07:03;53.73;;;24.97;;
7833;SDS011;3962;42.696;23.354;2022-12-07T06:09:30;47.83;;;22.57;;
7833;SDS011;3962;42.696;23.354;2022-12-07T06:11:57;64.20;;;31.70;;
7833;SDS011;3962;42.696;23.354;2022-12-07T06:14:43;56.53;;;27.07;;
7833;SDS011;3962;42.696;23.354;2022-12-07T06:17:11;46.93;;;23.50;;
7833;SDS011;3962;42.696;23.354;2022-12-07T06:19:38;47.50;;;23.20;;
7833;SDS011;3962;42.696;23.354;2022-12-07T06:22:05;52.93;;;27.10;;
7833;SDS011;3962;42.696;23.354;2022-12-07T06:24:34;56.50;;;30.03;;
7833;SDS011;3962;42.696;23.354;2022-12-07T06:27:01;54.33;;;27.87;;
7833;SDS011;3962;42.696;23.354;2022-12-07T06:29:28;47.63;;;24.17;;
7833;SDS011;3962;42.696;23.354;2022-12-07T06:31:56;60.17;;;25.87;;
7833;SDS011;3962;42.696;23.354;2022-12-07T06:34:23;48.13;;;25.37;;
7833;SDS011;3962;42.696;23.354;2022-12-07T06:36:51;51.13;;;27.30;;
7833;SDS011;3962;42.696;23.354;2022-12-07T06:39:20;52.80;;;27.10;;
7833;SDS011;3962;42.696;23.354;2022-12-07T06:41:48;51.23;;;23.53;;
7833;SDS011;3962;42.696;23.354;2022-12-07T06:44:16;54.67;;;24.23;;
7833;SDS011;3962;42.696;23.354;2022-12-07T06:46:44;53.80;;;26.07;;
7833;SDS011;3962;42.696;23.354;2022-12-07T06:49:12;47.83;;;23.60;;
7833;SDS011;3962;42.696;23.354;2022-12-07T06:51:39;47.57;;;24.37;;
7833;SDS011;3962;42.696;23.354;2022-12-07T06:54:06;47.03;;;24.93;;
7833;SDS011;3962;42.696;23.354;2022-12-07T06:56:33;55.27;;;29.17;;
7833;SDS011;3962;42.696;23.354;2022-12-07T06:59:00;57.90;;;30.23;;
7833;SDS011;3962;42.696;23.354;2022-12-07T07:01:27;59.13;;;30.07;;
7833;SDS011;3962;42.696;23.354;2022-12-07T07:03:54;58.97;;;33.67;;
7833;SDS011;3962;42.696;23.354;2022-12-07T07:06:23;62.70;;;33.43;;
7833;SDS011;3962;42.696;23.354;2022-12-07T07:08:50;83.93;;;35.50;;
7833;SDS011;3962;42.696;23.354;2022-12-07T07:11:17;63.47;;;34.27;;
7833;SDS011;3962;42.696;23.354;2022-12-07T07:13:44;60.13;;;33.20;;
7833;SDS011;3962;42.696;23.354;2022-12-07T07:16:11;66.73;;;35.30;;
7833;SDS011;3962;42.696;23.354;2022-12-07T07:18:38;69.00;;;36.00;;
7833;SDS011;3962;42.696;23.354;2022-12-07T07:21:05;76.27;;;40.67;;
7833;SDS011;3962;42.696;23.354;2022-12-07T07:23:33;91.70;;;47.90;;
7833;SDS011;3962;42.696;23.354;2022-12-07T07:26:00;91.87;;;47.13;;
7833;SDS011;3962;42.696;23.354;2022-12-07T07:28:26;70.70;;;38.73;;
7833;SDS011;3962;42.696;23.354;2022-12-07T07:30:53;68.47;;;35.07;;
7833;SDS011;3962;42.696;23.354;2022-12-07T07:33:20;63.60;;;33.30;;
7833;SDS011;3962;42.696;23.354;2022-12-07T07:35:47;65.40;;;34.60;;
7833;SDS011;3962;42.696;23.354;2022-12-07T07:38:14;70.73;;;34.50;;
7833;SDS011;3962;42.696;23.354;2022-12-07T07:40:42;61.57;;;32.27;;
7833;SDS011;3962;42.696;23.354;2022-12-07T07:43:09;68.97;;;32.67;;
7833;SDS011;3962;42.696;23.354;2022-12-07T07:45:36;62.03;;;31.83;;
7833;SDS011;3962;42.696;23.354;2022-12-07T07:48:03;61.33;;;30.93;;
7833;SDS011;3962;42.696;23.354;2022-12-07T07:50:30;62.57;;;30.90;;
7833;SDS011;3962;42.696;23.354;2022-12-07T07:52:56;54.40;;;29.50;;
7833;SDS011;3962;42.696;23.354;2022-12-07T07:55:24;55.97;;;28.63;;
7833;SDS011;3962;42.696;23.354;2022-12-07T07:57:52;55.80;;;28.73;;
7833;SDS011;3962;42.696;23.354;2022-12-07T08:00:20;62.30;;;33.37;;
7833;SDS011;3962;42.696;23.354;2022-12-07T08:02:48;66.77;;;35.20;;
7833;SDS011;3962;42.696;23.354;2022-12-07T08:05:15;56.17;;;29.17;;
7833;SDS011;3962;42.696;23.354;2022-12-07T08:07:42;53.20;;;29.87;;
7833;SDS011;3962;42.696;23.354;2022-12-07T08:10:09;70.60;;;40.07;;
7833;SDS011;3962;42.696;23.354;2022-12-07T08:12:37;54.70;;;29.33;;
7833;SDS011;3962;42.696;23.354;2022-12-07T08:15:27;40.00;;;23.20;;
7833;SDS011;3962;42.696;23.354;2022-12-07T08:17:55;54.30;;;29.83;;
7833;SDS011;3962;42.696;23.354;2022-12-07T08:20:22;58.73;;;29.50;;
7833;SDS011;3962;42.696;23.354;2022-12-07T08:22:49;59.73;;;29.20;;
7833;SDS011;3962;42.696;23.354;2022-12-07T08:25:19;57.67;;;29.30;;
7833;SDS011;3962;42.696;23.354;2022-12-07T08:27:47;64.10;;;29.87;;
7833;SDS011;3962;42.696;23.354;2022-12-07T08:30:14;60.43;;;29.03;;
7833;SDS011;3962;42.696;23.354;2022-12-07T08:32:43;64.77;;;31.37;;
7833;SDS011;3962;42.696;23.354;2022-12-07T08:35:10;57.20;;;27.93;;
7833;SDS011;3962;42.696;23.354;2022-12-07T08:37:38;50.80;;;23.63;;
7833;SDS011;3962;42.696;23.354;2022-12-07T08:40:05;48.57;;;22.13;;
7833;SDS011;3962;42.696;23.354;2022-12-07T08:42:34;51.50;;;24.93;;
7833;SDS011;3962;42.696;23.354;2022-12-07T08:45:05;53.53;;;25.60;;
7833;SDS011;3962;42.696;23.354;2022-12-07T08:47:34;51.00;;;24.27;;
7833;SDS011;3962;42.696;23.354;2022-12-07T08:50:05;55.53;;;25.97;;
7833;SDS011;3962;42.696;23.354;2022-12-07T08:52:34;51.07;;;26.07;;
7833;SDS011;3962;42.696;23.354;2022-12-07T08:55:03;50.97;;;26.57;;
7833;SDS011;3962;42.696;23.354;2022-12-07T08:57:31;55.63;;;27.33;;
7833;SDS011;3962;42.696;23.354;2022-12-07T09:00:01;47.53;;;26.43;;
7833;SDS011;3962;42.696;23.354;2022-12-07T09:02:29;51.63;;;26.03;;
7833;SDS011;3962;42.696;23.354;2022-12-07T09:04:57;50.70;;;26.03;;
7833;SDS011;3962;42.696;23.354;2022-12-07T09:07:25;57.80;;;27.47;;
7833;SDS011;3962;42.696;23.354;2022-12-07T09:09:53;55.17;;;27.30;;
7833;SDS011;3962;42.696;23.354;2022-12-07T09:12:21;51.13;;;26.93;;
7833;SDS011;3962;42.696;23.354;2022-12-07T09:14:48;54.13;;;27.00;;
7833;SDS011;3962;42.696;23.354;2022-12-07T09:17:15;58.13;;;26.83;;
7833;SDS011;3962;42.696;23.354;2022-12-07T09:19:42;54.00;;;26.50;;
7833;SDS011;3962;42.696;23.354;2022-12-07T09:22:08;55.63;;;26.87;;
7833;SDS011;3962;42.696;23.354;2022-12-07T09:24:37;50.67;;;28.20;;
7833;SDS011;3962;42.696;23.354;2022-12-07T09:27:04;57.93;;;26.63;;
7833;SDS011;3962;42.696;23.354;2022-12-07T09:29:30;49.37;;;25.90;;
7833;SDS011;3962;42.696;23.354;2022-12-07T09:31:57;51.60;;;28.50;;
7833;SDS011;3962;42.696;23.354;2022-12-07T09:34:24;52.33;;;27.77;;
7833;SDS011;3962;42.696;23.354;2022-12-07T09:36:52;49.60;;;27.03;;
7833;SDS011;3962;42.696;23.354;2022-12-07T09:39:19;51.67;;;27.47;;
7833;SDS011;3962;42.696;23.354;2022-12-07T09:41:47;52.67;;;27.03;;
7833;SDS011;3962;42.696;23.354;2022-12-07T09:44:20;57.03;;;28.37;;
7833;SDS011;3962;42.696;23.354;2022-12-07T09:46:50;56.03;;;25.87;;
7833;SDS011;3962;42.696;23.354;2022-12-07T09:49:19;44.47;;;25.23;;
7833;SDS011;3962;42.696;23.354;2022-12-07T09:51:47;46.10;;;25.33;;
7833;SDS011;3962;42.696;23.354;2022-12-07T09:54:25;50.13;;;25.77;;
7833;SDS011;3962;42.696;23.354;2022-12-07T09:56:54;49.60;;;25.23;;
7833;SDS011;3962;42.696;23.354;2022-12-07T09:59:21;49.43;;;25.60;;
7833;SDS011;3962;42.696;23.354;2022-12-07T10:01:49;56.80;;;27.93;;
7833;SDS011;3962;42.696;23.354;2022-12-07T10:04:17;50.77;;;25.90;;
7833;SDS011;3962;42.696;23.354;2022-12-07T10:06:46;48.67;;;25.50;;
7833;SDS011;3962;42.696;23.354;2022-12-07T10:09:14;52.23;;;26.43;;
7833;SDS011;3962;42.696;23.354;2022-12-07T10:12:02;42.73;;;23.53;;
7833;SDS011;3962;42.696;23.354;2022-12-07T10:14:32;47.40;;;25.13;;
7833;SDS011;3962;42.696;23.354;2022-12-07T10:17:01;48.23;;;24.53;;
7833;SDS011;3962;42.696;23.354;2022-12-07T10:19:29;45.10;;;22.53;;
7833;SDS011;3962;42.696;23.354;2022-12-07T10:21:59;49.20;;;24.20;;
7833;SDS011;3962;42.696;23.354;2022-12-07T10:24:31;46.40;;;22.70;;
7833;SDS011;3962;42.696;23.354;2022-12-07T10:26:58;47.10;;;24.90;;
7833;SDS011;3962;42.696;23.354;2022-12-07T10:29:28;46.50;;;23.93;;
7833;SDS011;3962;42.696;23.354;2022-12-07T10:31:58;45.83;;;21.60;;
7833;SDS011;3962;42.696;23.354;2022-12-07T10:34:26;41.50;;;22.37;;
7833;SDS011;3962;42.696;23.354;2022-12-07T10:37:06;46.47;;;24.17;;
7833;SDS011;3962;42.696;23.354;2022-12-07T10:39:41;38.73;;;20.83;;
7833;SDS011;3962;42.696;23.354;2022-12-07T10:42:15;45.97;;;22.57;;
7833;SDS011;3962;42.696;23.354;2022-12-07T10:44:44;44.27;;;21.57;;
7833;SDS011;3962;42.696;23.354;2022-12-07T10:47:14;40.33;;;22.60;;
7833;SDS011;3962;42.696;23.354;2022-12-07T10:53:03;44.60;;;21.33;;
7833;SDS011;3962;42.696;23.354;2022-12-07T10:55:52;42.67;;;23.17;;
7833;SDS011;3962;42.696;23.354;2022-12-07T10:58:37;44.13;;;23.57;;
7833;SDS011;3962;42.696;23.354;2022-12-07T11:01:19;45.73;;;24.17;;
7833;SDS011;3962;42.696;23.354;2022-12-07T11:03:54;46.10;;;24.27;;
7833;SDS011;3962;42.696;23.354;2022-12-07T11:06:34;43.87;;;23.33;;
7833;SDS011;3962;42.696;23.354;2022-12-07T11:12:33;41.20;;;21.83;;
7833;SDS011;3962;42.696;23.354;2022-12-07T11:15:17;38.30;;;21.13;;
7833;SDS011;3962;42.696;23.354;2022-12-07T11:17:52;43.80;;;21.37;;
7833;SDS011;3962;42.696;23.354;2022-12-07T11:20:34;31.03;;;16.03;;
7833;SDS011;3962;42.696;23.354;2022-12-07T11:23:11;33.20;;;17.33;;
7833;SDS011;3962;42.696;23.354;2022-12-07T11:25:48;37.40;;;16.57;;
7833;SDS011;3962;42.696;23.354;2022-12-07T11:28:22;31.63;;;15.97;;
7833;SDS011;3962;42.696;23.354;2022-12-07T11:31:03;33.00;;;17.37;;
7833;SDS011;3962;42.696;23.354;2022-12-07T11:33:39;32.37;;;16.00;;
7833;SDS011;3962;42.696;23.354;2022-12-07T11:36:14;30.33;;;15.67;;
7833;SDS011;3962;42.696;23.354;2022-12-07T11:38:56;25.87;;;15.70;;
7833;SDS011;3962;42.696;23.354;2022-12-07T11:41:27;32.83;;;15.47;;
7833;SDS011;3962;42.696;23.354;2022-12-07T11:43:58;32.27;;;17.60;;
7833;SDS011;3962;42.696;23.354;2022-12-07T11:46:36;25.37;;;15.00;;
7833;SDS011;3962;42.696;23.354;2022-12-07T11:49:15;30.97;;;16.10;;
7833;SDS011;3962;42.696;23.354;2022-12-07T11:51:51;32.90;;;15.63;;
7833;SDS011;3962;42.696;23.354;2022-12-07T11:54:23;25.97;;;15.50;;
7833;SDS011;3962;42.696;23.354;2022-12-07T11:56:53;38.43;;;18.43;;
7833;SDS011;3962;42.696;23.354;2022-12-07T11:59:23;37.87;;;18.93;;
7833;SDS011;3962;42.696;23.354;2022-12-07T12:01:56;32.83;;;18.43;;
7833;SDS011;3962;42.696;23.354;2022-12-07T12:04:29;33.50;;;18.07;;
7833;SDS011;3962;42.696;23.354;2022-12-07T12:07:00;29.00;;;16.53;;
7833;SDS011;3962;42.696;23.354;2022-12-07T12:09:29;34.40;;;17.07;;
7833;SDS011;3962;42.696;23.354;2022-12-07T12:12:08;31.53;;;15.57;;
7833;SDS011;3962;42.696;23.354;2022-12-07T12:14:50;28.93;;;15.63;;
7833;SDS011;3962;42.696;23.354;2022-12-07T12:17:36;35.63;;;16.03;;
7833;SDS011;3962;42.696;23.354;2022-12-07T12:20:20;52.23;;;24.00;;
7833;SDS011;3962;42.696;23.354;2022-12-07T12:22:53;29.97;;;14.27;;
7833;SDS011;3962;42.696;23.354;2022-12-07T12:25:25;33.33;;;16.63;;
7833;SDS011;3962;42.696;23.354;2022-12-07T12:27:54;24.90;;;13.80;;
7833;SDS011;3962;42.696;23.354;2022-12-07T12:30:30;34.93;;;17.80;;
7833;SDS011;3962;42.696;23.354;2022-12-07T12:33:03;38.77;;;19.63;;
7833;SDS011;3962;42.696;23.354;2022-12-07T12:35:39;40.87;;;21.77;;
7833;SDS011;3962;42.696;23.354;2022-12-07T12:38:27;41.07;;;22.07;;
7833;SDS011;3962;42.696;23.354;2022-12-07T12:40:58;41.77;;;24.20;;
7833;SDS011;3962;42.696;23.354;2022-12-07T12:43:48;36.90;;;18.23;;
7833;SDS011;3962;42.696;23.354;2022-12-07T12:46:36;33.77;;;17.33;;
7833;SDS011;3962;42.696;23.354;2022-12-07T12:55:24;37.00;;;20.53;;
7833;SDS011;3962;42.696;23.354;2022-12-07T12:58:33;39.57;;;21.10;;
7833;SDS011;3962;42.696;23.354;2022-12-07T13:10:20;28.17;;;16.17;;
7833;SDS011;3962;42.696;23.354;2022-12-07T13:12:57;29.77;;;15.43;;
7833;SDS011;3962;42.696;23.354;2022-12-07T13:15:31;33.57;;;17.60;;
7833;SDS011;3962;42.696;23.354;2022-12-07T13:18:04;27.33;;;14.87;;
7833;SDS011;3962;42.696;23.354;2022-12-07T13:20:52;29.80;;;16.47;;
7833;SDS011;3962;42.696;23.354;2022-12-07T13:23:24;30.27;;;15.63;;
7833;SDS011;3962;42.696;23.354;2022-12-07T13:25:58;36.33;;;17.77;;
7833;SDS011;3962;42.696;23.354;2022-12-07T13:28:32;31.87;;;16.10;;
7833;SDS011;3962;42.696;23.354;2022-12-07T13:31:14;33.30;;;16.53;;
7833;SDS011;3962;42.696;23.354;2022-12-07T13:33:46;30.27;;;16.50;;
7833;SDS011;3962;42.696;23.354;2022-12-07T13:36:17;30.07;;;16.20;;
7833;SDS011;3962;42.696;23.354;2022-12-07T13:38:50;28.43;;;15.57;;
7833;SDS011;3962;42.696;23.354;2022-12-07T13:41:20;28.53;;;15.77;;
7833;SDS011;3962;42.696;23.354;2022-12-07T13:43:53;35.57;;;17.20;;
7833;SDS011;3962;42.696;23.354;2022-12-07T13:46:26;30.23;;;16.60;;
7833;SDS011;3962;42.696;23.354;2022-12-07T13:48:59;43.73;;;18.13;;
7833;SDS011;3962;42.696;23.354;2022-12-07T13:51:26;32.30;;;17.77;;
7833;SDS011;3962;42.696;23.354;2022-12-07T13:53:55;26.00;;;14.77;;
7833;SDS011;3962;42.696;23.354;2022-12-07T13:56:28;28.93;;;15.90;;
7833;SDS011;3962;42.696;23.354;2022-12-07T13:58:59;26.83;;;15.03;;
7833;SDS011;3962;42.696;23.354;2022-12-07T14:01:26;29.47;;;15.23;;
7833;SDS011;3962;42.696;23.354;2022-12-07T14:03:56;35.17;;;17.83;;
7833;SDS011;3962;42.696;23.354;2022-12-07T14:06:46;34.73;;;19.40;;
7833;SDS011;3962;42.696;23.354;2022-12-07T14:09:17;29.83;;;17.83;;
7833;SDS011;3962;42.696;23.354;2022-12-07T14:11:48;27.47;;;15.43;;
7833;SDS011;3962;42.696;23.354;2022-12-07T14:14:18;26.60;;;15.33;;
7833;SDS011;3962;42.696;23.354;2022-12-07T14:16:55;36.33;;;17.37;;
7833;SDS011;3962;42.696;23.354;2022-12-07T14:19:44;39.83;;;20.30;;
7833;SDS011;3962;42.696;23.354;2022-12-07T14:22:27;35.83;;;18.27;;
7833;SDS011;3962;42.696;23.354;2022-12-07T14:25:01;32.13;;;17.57;;
7833;SDS011;3962;42.696;23.354;2022-12-07T14:27:51;35.20;;;17.53;;
7833;SDS011;3962;42.696;23.354;2022-12-07T14:30:21;32.97;;;17.40;;
7833;SDS011;3962;42.696;23.354;2022-12-07T14:32:51;30.03;;;17.53;;
7833;SDS011;3962;42.696;23.354;2022-12-07T14:35:20;32.70;;;17.83;;
7833;SDS011;3962;42.696;23.354;2022-12-07T14:37:48;37.00;;;17.97;;
7833;SDS011;3962;42.696;23.354;2022-12-07T14:40:16;35.70;;;17.03;;
7833;SDS011;3962;42.696;23.354;2022-12-07T14:42:45;33.33;;;17.10;;
7833;SDS011;3962;42.696;23.354;2022-12-07T14:45:16;39.23;;;18.17;;
7833;SDS011;3962;42.696;23.354;2022-12-07T14:47:45;37.37;;;18.40;;
7833;SDS011;3962;42.696;23.354;2022-12-07T14:50:13;32.60;;;17.37;;
7833;SDS011;3962;42.696;23.354;2022-12-07T14:52:42;35.23;;;17.57;;
7833;SDS011;3962;42.696;23.354;2022-12-07T14:55:14;32.33;;;17.37;;
7833;SDS011;3962;42.696;23.354;2022-12-07T14:57:46;43.90;;;21.90;;
7833;SDS011;3962;42.696;23.354;2022-12-07T15:00:16;45.83;;;21.07;;
7833;SDS011;3962;42.696;23.354;2022-12-07T15:02:44;35.97;;;20.60;;
7833;SDS011;3962;42.696;23.354;2022-12-07T15:05:12;38.07;;;19.50;;
7833;SDS011;3962;42.696;23.354;2022-12-07T15:07:39;39.87;;;21.43;;
7833;SDS011;3962;42.696;23.354;2022-12-07T15:10:09;37.10;;;18.80;;
7833;SDS011;3962;42.696;23.354;2022-12-07T15:12:41;36.60;;;18.27;;
7833;SDS011;3962;42.696;23.354;2022-12-07T15:15:08;33.83;;;16.63;;